sensor_id;sensor_type;location;lat;lon;timestamp;P1;durP1;ratioP1;P2;durP2;ratioP2
11893;SDS011;6006;49.696;8.662;2023-04-24T00:01:22;1.17;;;1.03;;
11893;SDS011;6006;49.696;8.662;2023-04-24T00:03:50;1.27;;;0.80;;
11893;SDS011;6006;49.696;8.662;2023-04-24T00:06:17;1.83;;;0.90;;
11893;SDS011;6006;49.696;8.662;2023-04-24T00:08:44;1.63;;;0.70;;
11893;SDS011;6006;49.696;8.662;2023-04-24T00:11:11;0.97;;;0.90;;
11893;SDS011;6006;49.696;8.662;2023-04-24T00:13:38;1.00;;;1.00;;
11893;SDS011;6006;49.696;8.662;2023-04-24T00:16:05;1.07;;;0.90;;
11893;SDS011;6006;49.696;8.662;2023-04-24T00:18:32;2.30;;;0.97;;
11893;SDS011;6006;49.696;8.662;2023-04-24T00:21:00;0.80;;;0.80;;
11893;SDS011;6006;49.696;8.662;2023-04-24T00:23:27;1.37;;;0.80;;
11893;SDS011;6006;49.696;8.662;2023-04-24T00:25:54;1.30;;;0.80;;
11893;SDS011;6006;49.696;8.662;2023-04-24T00:28:21;2.53;;;0.90;;
11893;SDS011;6006;49.696;8.662;2023-04-24T00:30:48;0.97;;;0.83;;
11893;SDS011;6006;49.696;8.662;2023-04-24T00:33:15;1.43;;;0.70;;
11893;SDS011;6006;49.696;8.662;2023-04-24T00:35:42;2.00;;;0.70;;
11893;SDS011;6006;49.696;8.662;2023-04-24T00:38:10;1.87;;;0.60;;
11893;SDS011;6006;49.696;8.662;2023-04-24T00:40:37;1.67;;;0.80;;
11893;SDS011;6006;49.696;8.662;2023-04-24T00:43:04;1.07;;;0.73;;
11893;SDS011;6006;49.696;8.662;2023-04-24T00:45:31;2.13;;;1.00;;
11893;SDS011;6006;49.696;8.662;2023-04-24T00:47:58;1.27;;;0.70;;
11893;SDS011;6006;49.696;8.662;2023-04-24T00:50:26;1.03;;;0.77;;
11893;SDS011;6006;49.696;8.662;2023-04-24T00:52:53;1.00;;;0.60;;
11893;SDS011;6006;49.696;8.662;2023-04-24T00:55:21;0.97;;;0.73;;
11893;SDS011;6006;49.696;8.662;2023-04-24T00:57:48;1.00;;;1.00;;
11893;SDS011;6006;49.696;8.662;2023-04-24T01:00:15;0.90;;;0.90;;
11893;SDS011;6006;49.696;8.662;2023-04-24T01:02:43;1.67;;;0.80;;
11893;SDS011;6006;49.696;8.662;2023-04-24T01:05:11;0.80;;;0.80;;
11893;SDS011;6006;49.696;8.662;2023-04-24T01:07:38;0.73;;;0.63;;
11893;SDS011;6006;49.696;8.662;2023-04-24T01:10:09;0.90;;;0.77;;
11893;SDS011;6006;49.696;8.662;2023-04-24T01:12:38;1.53;;;1.03;;
11893;SDS011;6006;49.696;8.662;2023-04-24T01:15:05;0.90;;;0.90;;
11893;SDS011;6006;49.696;8.662;2023-04-24T01:17:33;0.70;;;0.70;;
11893;SDS011;6006;49.696;8.662;2023-04-24T01:20:01;1.50;;;1.30;;
11893;SDS011;6006;49.696;8.662;2023-04-24T01:22:32;1.30;;;0.80;;
11893;SDS011;6006;49.696;8.662;2023-04-24T01:24:59;5.60;;;1.20;;
11893;SDS011;6006;49.696;8.662;2023-04-24T01:27:26;0.70;;;0.70;;
11893;SDS011;6006;49.696;8.662;2023-04-24T01:29:53;1.00;;;1.00;;
11893;SDS011;6006;49.696;8.662;2023-04-24T01:32:21;0.70;;;0.70;;
11893;SDS011;6006;49.696;8.662;2023-04-24T01:34:48;0.73;;;0.73;;
11893;SDS011;6006;49.696;8.662;2023-04-24T01:37:16;1.10;;;0.90;;
11893;SDS011;6006;49.696;8.662;2023-04-24T01:39:44;1.70;;;0.70;;
11893;SDS011;6006;49.696;8.662;2023-04-24T01:42:11;1.87;;;0.83;;
11893;SDS011;6006;49.696;8.662;2023-04-24T01:44:39;1.80;;;0.90;;
11893;SDS011;6006;49.696;8.662;2023-04-24T01:47:07;1.57;;;0.77;;
11893;SDS011;6006;49.696;8.662;2023-04-24T01:49:34;0.80;;;0.80;;
11893;SDS011;6006;49.696;8.662;2023-04-24T01:52:00;0.80;;;0.80;;
11893;SDS011;6006;49.696;8.662;2023-04-24T01:54:27;0.90;;;0.80;;
11893;SDS011;6006;49.696;8.662;2023-04-24T01:56:56;1.77;;;1.10;;
11893;SDS011;6006;49.696;8.662;2023-04-24T01:59:23;1.37;;;0.80;;
11893;SDS011;6006;49.696;8.662;2023-04-24T02:01:51;1.40;;;1.00;;
11893;SDS011;6006;49.696;8.662;2023-04-24T02:04:18;0.93;;;0.83;;
11893;SDS011;6006;49.696;8.662;2023-04-24T02:06:45;0.93;;;0.93;;
11893;SDS011;6006;49.696;8.662;2023-04-24T02:09:12;1.23;;;0.80;;
11893;SDS011;6006;49.696;8.662;2023-04-24T02:11:38;1.67;;;0.83;;
11893;SDS011;6006;49.696;8.662;2023-04-24T02:14:07;2.00;;;0.80;;
11893;SDS011;6006;49.696;8.662;2023-04-24T02:16:34;2.13;;;1.03;;
11893;SDS011;6006;49.696;8.662;2023-04-24T02:19:22;1.47;;;1.00;;
11893;SDS011;6006;49.696;8.662;2023-04-24T02:21:49;0.70;;;0.70;;
11893;SDS011;6006;49.696;8.662;2023-04-24T02:24:16;1.43;;;1.03;;
11893;SDS011;6006;49.696;8.662;2023-04-24T02:26:43;4.33;;;0.90;;
11893;SDS011;6006;49.696;8.662;2023-04-24T02:29:11;0.80;;;0.80;;
11893;SDS011;6006;49.696;8.662;2023-04-24T02:31:38;1.63;;;0.70;;
11893;SDS011;6006;49.696;8.662;2023-04-24T02:34:05;1.47;;;0.90;;
11893;SDS011;6006;49.696;8.662;2023-04-24T02:36:32;1.23;;;0.90;;
11893;SDS011;6006;49.696;8.662;2023-04-24T02:38:59;1.37;;;0.90;;
11893;SDS011;6006;49.696;8.662;2023-04-24T02:41:26;1.60;;;0.70;;
11893;SDS011;6006;49.696;8.662;2023-04-24T02:43:56;1.17;;;1.00;;
11893;SDS011;6006;49.696;8.662;2023-04-24T02:46:24;1.87;;;0.97;;
11893;SDS011;6006;49.696;8.662;2023-04-24T02:48:52;2.57;;;0.93;;
11893;SDS011;6006;49.696;8.662;2023-04-24T02:51:18;4.67;;;1.07;;
11893;SDS011;6006;49.696;8.662;2023-04-24T02:53:45;1.50;;;1.40;;
11893;SDS011;6006;49.696;8.662;2023-04-24T02:56:12;1.80;;;1.13;;
11893;SDS011;6006;49.696;8.662;2023-04-24T02:58:39;1.70;;;1.60;;
11893;SDS011;6006;49.696;8.662;2023-04-24T03:01:07;2.40;;;1.90;;
11893;SDS011;6006;49.696;8.662;2023-04-24T03:03:36;3.03;;;1.73;;
11893;SDS011;6006;49.696;8.662;2023-04-24T03:06:03;2.17;;;1.70;;
11893;SDS011;6006;49.696;8.662;2023-04-24T03:08:31;1.30;;;1.30;;
11893;SDS011;6006;49.696;8.662;2023-04-24T03:10:58;1.47;;;1.33;;
11893;SDS011;6006;49.696;8.662;2023-04-24T03:13:24;5.20;;;1.60;;
11893;SDS011;6006;49.696;8.662;2023-04-24T03:15:51;2.23;;;1.37;;
11893;SDS011;6006;49.696;8.662;2023-04-24T03:18:19;2.77;;;1.40;;
11893;SDS011;6006;49.696;8.662;2023-04-24T03:20:47;3.60;;;1.60;;
11893;SDS011;6006;49.696;8.662;2023-04-24T03:23:14;3.23;;;2.30;;
11893;SDS011;6006;49.696;8.662;2023-04-24T03:25:41;1.93;;;1.27;;
11893;SDS011;6006;49.696;8.662;2023-04-24T03:28:08;1.73;;;1.40;;
11893;SDS011;6006;49.696;8.662;2023-04-24T03:30:35;1.57;;;1.30;;
11893;SDS011;6006;49.696;8.662;2023-04-24T03:33:02;3.13;;;1.60;;
11893;SDS011;6006;49.696;8.662;2023-04-24T03:35:29;2.97;;;1.60;;
11893;SDS011;6006;49.696;8.662;2023-04-24T03:37:57;1.30;;;1.20;;
11893;SDS011;6006;49.696;8.662;2023-04-24T03:40:24;1.60;;;1.50;;
11893;SDS011;6006;49.696;8.662;2023-04-24T03:42:51;2.27;;;1.50;;
11893;SDS011;6006;49.696;8.662;2023-04-24T03:45:18;1.50;;;1.40;;
11893;SDS011;6006;49.696;8.662;2023-04-24T03:47:45;1.97;;;1.50;;
11893;SDS011;6006;49.696;8.662;2023-04-24T03:50:12;1.93;;;1.50;;
11893;SDS011;6006;49.696;8.662;2023-04-24T03:52:39;1.43;;;1.17;;
11893;SDS011;6006;49.696;8.662;2023-04-24T03:55:07;1.47;;;1.37;;
11893;SDS011;6006;49.696;8.662;2023-04-24T03:57:37;1.57;;;1.40;;
11893;SDS011;6006;49.696;8.662;2023-04-24T04:00:05;1.53;;;1.40;;
11893;SDS011;6006;49.696;8.662;2023-04-24T04:02:33;2.43;;;1.53;;
11893;SDS011;6006;49.696;8.662;2023-04-24T04:05:00;1.63;;;1.53;;
11893;SDS011;6006;49.696;8.662;2023-04-24T04:07:27;2.27;;;1.70;;
11893;SDS011;6006;49.696;8.662;2023-04-24T04:09:54;2.07;;;1.50;;
11893;SDS011;6006;49.696;8.662;2023-04-24T04:12:23;2.00;;;1.90;;
11893;SDS011;6006;49.696;8.662;2023-04-24T04:14:50;2.33;;;1.70;;
11893;SDS011;6006;49.696;8.662;2023-04-24T04:17:16;1.60;;;1.50;;
11893;SDS011;6006;49.696;8.662;2023-04-24T04:19:43;2.27;;;2.07;;
11893;SDS011;6006;49.696;8.662;2023-04-24T04:22:10;2.20;;;2.10;;
11893;SDS011;6006;49.696;8.662;2023-04-24T04:24:37;1.80;;;1.70;;
11893;SDS011;6006;49.696;8.662;2023-04-24T04:27:05;2.80;;;1.87;;
11893;SDS011;6006;49.696;8.662;2023-04-24T04:29:34;2.43;;;2.27;;
11893;SDS011;6006;49.696;8.662;2023-04-24T04:32:01;4.37;;;2.23;;
11893;SDS011;6006;49.696;8.662;2023-04-24T04:34:28;2.70;;;1.93;;
11893;SDS011;6006;49.696;8.662;2023-04-24T04:36:59;2.10;;;2.00;;
11893;SDS011;6006;49.696;8.662;2023-04-24T04:39:27;2.43;;;2.23;;
11893;SDS011;6006;49.696;8.662;2023-04-24T04:41:55;2.20;;;1.70;;
11893;SDS011;6006;49.696;8.662;2023-04-24T04:44:23;2.37;;;2.10;;
11893;SDS011;6006;49.696;8.662;2023-04-24T04:46:51;1.90;;;1.80;;
11893;SDS011;6006;49.696;8.662;2023-04-24T04:49:21;2.63;;;2.10;;
11893;SDS011;6006;49.696;8.662;2023-04-24T04:51:48;2.70;;;2.23;;
11893;SDS011;6006;49.696;8.662;2023-04-24T04:54:17;2.70;;;2.30;;
11893;SDS011;6006;49.696;8.662;2023-04-24T04:56:43;2.20;;;2.10;;
11893;SDS011;6006;49.696;8.662;2023-04-24T04:59:10;2.03;;;1.93;;
11893;SDS011;6006;49.696;8.662;2023-04-24T05:01:37;3.53;;;2.23;;
11893;SDS011;6006;49.696;8.662;2023-04-24T05:04:06;2.30;;;2.10;;
11893;SDS011;6006;49.696;8.662;2023-04-24T05:06:33;3.33;;;2.33;;
11893;SDS011;6006;49.696;8.662;2023-04-24T05:09:00;2.40;;;2.20;;
11893;SDS011;6006;49.696;8.662;2023-04-24T05:11:28;2.20;;;2.10;;
11893;SDS011;6006;49.696;8.662;2023-04-24T05:13:55;3.17;;;2.50;;
11893;SDS011;6006;49.696;8.662;2023-04-24T05:16:22;2.00;;;1.80;;
11893;SDS011;6006;49.696;8.662;2023-04-24T05:18:49;2.63;;;2.27;;
11893;SDS011;6006;49.696;8.662;2023-04-24T05:21:17;2.83;;;2.63;;
11893;SDS011;6006;49.696;8.662;2023-04-24T05:23:44;2.20;;;2.10;;
11893;SDS011;6006;49.696;8.662;2023-04-24T05:26:11;2.53;;;2.40;;
11893;SDS011;6006;49.696;8.662;2023-04-24T05:28:39;2.83;;;2.40;;
11893;SDS011;6006;49.696;8.662;2023-04-24T05:31:06;2.60;;;2.40;;
11893;SDS011;6006;49.696;8.662;2023-04-24T05:33:32;2.37;;;2.20;;
11893;SDS011;6006;49.696;8.662;2023-04-24T05:35:59;2.77;;;2.57;;
11893;SDS011;6006;49.696;8.662;2023-04-24T05:38:28;2.57;;;2.37;;
11893;SDS011;6006;49.696;8.662;2023-04-24T05:40:54;2.33;;;2.13;;
11893;SDS011;6006;49.696;8.662;2023-04-24T05:43:21;2.57;;;2.37;;
11893;SDS011;6006;49.696;8.662;2023-04-24T05:45:48;3.00;;;2.70;;
11893;SDS011;6006;49.696;8.662;2023-04-24T05:48:15;2.70;;;2.50;;
11893;SDS011;6006;49.696;8.662;2023-04-24T05:50:42;3.03;;;2.83;;
11893;SDS011;6006;49.696;8.662;2023-04-24T05:53:09;2.90;;;2.70;;
11893;SDS011;6006;49.696;8.662;2023-04-24T05:55:37;2.60;;;2.40;;
11893;SDS011;6006;49.696;8.662;2023-04-24T05:58:04;2.97;;;2.30;;
11893;SDS011;6006;49.696;8.662;2023-04-24T06:00:32;2.57;;;2.37;;
11893;SDS011;6006;49.696;8.662;2023-04-24T06:02:59;3.63;;;2.70;;
11893;SDS011;6006;49.696;8.662;2023-04-24T06:05:28;2.40;;;2.20;;
11893;SDS011;6006;49.696;8.662;2023-04-24T06:07:55;2.50;;;2.30;;
11893;SDS011;6006;49.696;8.662;2023-04-24T06:10:22;4.00;;;2.63;;
11893;SDS011;6006;49.696;8.662;2023-04-24T06:12:50;2.60;;;2.40;;
11893;SDS011;6006;49.696;8.662;2023-04-24T06:15:17;3.37;;;2.57;;
11893;SDS011;6006;49.696;8.662;2023-04-24T06:17:44;2.80;;;2.60;;
11893;SDS011;6006;49.696;8.662;2023-04-24T06:20:11;3.20;;;2.90;;
11893;SDS011;6006;49.696;8.662;2023-04-24T06:22:38;2.73;;;2.50;;
11893;SDS011;6006;49.696;8.662;2023-04-24T06:25:05;4.13;;;3.37;;
11893;SDS011;6006;49.696;8.662;2023-04-24T06:27:33;4.43;;;3.73;;
11893;SDS011;6006;49.696;8.662;2023-04-24T06:30:03;3.50;;;3.13;;
11893;SDS011;6006;49.696;8.662;2023-04-24T06:32:30;4.77;;;3.40;;
11893;SDS011;6006;49.696;8.662;2023-04-24T06:34:57;3.57;;;3.23;;
11893;SDS011;6006;49.696;8.662;2023-04-24T06:37:24;3.43;;;3.10;;
11893;SDS011;6006;49.696;8.662;2023-04-24T06:39:51;3.80;;;3.47;;
11893;SDS011;6006;49.696;8.662;2023-04-24T06:42:18;3.73;;;3.43;;
11893;SDS011;6006;49.696;8.662;2023-04-24T06:44:45;3.33;;;3.00;;
11893;SDS011;6006;49.696;8.662;2023-04-24T06:47:14;3.53;;;3.23;;
11893;SDS011;6006;49.696;8.662;2023-04-24T06:49:41;3.60;;;3.30;;
11893;SDS011;6006;49.696;8.662;2023-04-24T06:52:08;4.23;;;3.70;;
11893;SDS011;6006;49.696;8.662;2023-04-24T06:54:35;5.20;;;4.00;;
11893;SDS011;6006;49.696;8.662;2023-04-24T06:57:02;4.83;;;3.90;;
11893;SDS011;6006;49.696;8.662;2023-04-24T06:59:29;4.40;;;4.00;;
11893;SDS011;6006;49.696;8.662;2023-04-24T07:01:56;4.87;;;3.90;;
11893;SDS011;6006;49.696;8.662;2023-04-24T07:04:24;3.80;;;3.40;;
11893;SDS011;6006;49.696;8.662;2023-04-24T07:06:51;3.70;;;3.40;;
11893;SDS011;6006;49.696;8.662;2023-04-24T07:09:20;3.87;;;3.20;;
11893;SDS011;6006;49.696;8.662;2023-04-24T07:11:48;3.00;;;2.70;;
11893;SDS011;6006;49.696;8.662;2023-04-24T07:14:16;4.03;;;2.80;;
11893;SDS011;6006;49.696;8.662;2023-04-24T07:16:43;3.20;;;2.97;;
11893;SDS011;6006;49.696;8.662;2023-04-24T07:19:10;2.90;;;2.70;;
11893;SDS011;6006;49.696;8.662;2023-04-24T07:21:38;3.30;;;3.03;;
11893;SDS011;6006;49.696;8.662;2023-04-24T07:24:05;3.30;;;3.00;;
11893;SDS011;6006;49.696;8.662;2023-04-24T07:26:35;3.10;;;2.80;;
11893;SDS011;6006;49.696;8.662;2023-04-24T07:29:03;2.40;;;2.10;;
11893;SDS011;6006;49.696;8.662;2023-04-24T07:31:30;2.43;;;2.23;;
11893;SDS011;6006;49.696;8.662;2023-04-24T07:33:57;1.93;;;1.57;;
11893;SDS011;6006;49.696;8.662;2023-04-24T07:36:24;2.23;;;1.90;;
11893;SDS011;6006;49.696;8.662;2023-04-24T07:38:52;1.60;;;1.50;;
11893;SDS011;6006;49.696;8.662;2023-04-24T07:41:19;2.57;;;1.80;;
11893;SDS011;6006;49.696;8.662;2023-04-24T07:43:46;1.90;;;1.80;;
11893;SDS011;6006;49.696;8.662;2023-04-24T07:46:13;3.40;;;2.10;;
11893;SDS011;6006;49.696;8.662;2023-04-24T07:48:40;3.63;;;2.23;;
11893;SDS011;6006;49.696;8.662;2023-04-24T07:51:07;1.73;;;1.63;;
11893;SDS011;6006;49.696;8.662;2023-04-24T07:53:35;2.03;;;1.80;;
11893;SDS011;6006;49.696;8.662;2023-04-24T07:56:03;1.87;;;1.77;;
11893;SDS011;6006;49.696;8.662;2023-04-24T07:58:31;1.80;;;1.70;;
11893;SDS011;6006;49.696;8.662;2023-04-24T08:00:58;4.63;;;1.90;;
11893;SDS011;6006;49.696;8.662;2023-04-24T08:03:25;1.83;;;1.73;;
11893;SDS011;6006;49.696;8.662;2023-04-24T08:05:52;1.93;;;1.70;;
11893;SDS011;6006;49.696;8.662;2023-04-24T08:08:19;2.30;;;2.10;;
11893;SDS011;6006;49.696;8.662;2023-04-24T08:10:47;2.10;;;1.90;;
11893;SDS011;6006;49.696;8.662;2023-04-24T08:13:16;2.13;;;1.90;;
11893;SDS011;6006;49.696;8.662;2023-04-24T08:15:43;1.93;;;1.80;;
11893;SDS011;6006;49.696;8.662;2023-04-24T08:18:10;3.17;;;1.90;;
11893;SDS011;6006;49.696;8.662;2023-04-24T08:20:38;3.47;;;1.63;;
11893;SDS011;6006;49.696;8.662;2023-04-24T08:23:05;2.77;;;1.60;;
11893;SDS011;6006;49.696;8.662;2023-04-24T08:25:32;1.97;;;1.80;;
11893;SDS011;6006;49.696;8.662;2023-04-24T08:28:01;2.37;;;1.70;;
11893;SDS011;6006;49.696;8.662;2023-04-24T08:30:30;1.77;;;1.67;;
11893;SDS011;6006;49.696;8.662;2023-04-24T08:32:57;2.20;;;1.97;;
11893;SDS011;6006;49.696;8.662;2023-04-24T08:35:24;2.00;;;1.90;;
11893;SDS011;6006;49.696;8.662;2023-04-24T08:37:51;2.03;;;1.87;;
11893;SDS011;6006;49.696;8.662;2023-04-24T08:40:20;2.10;;;2.00;;
11893;SDS011;6006;49.696;8.662;2023-04-24T08:42:52;2.73;;;1.77;;
11893;SDS011;6006;49.696;8.662;2023-04-24T08:45:20;2.40;;;2.17;;
11893;SDS011;6006;49.696;8.662;2023-04-24T08:47:49;1.97;;;1.70;;
11893;SDS011;6006;49.696;8.662;2023-04-24T08:50:18;1.83;;;1.73;;
11893;SDS011;6006;49.696;8.662;2023-04-24T08:52:45;2.23;;;1.70;;
11893;SDS011;6006;49.696;8.662;2023-04-24T08:55:13;1.80;;;1.70;;
11893;SDS011;6006;49.696;8.662;2023-04-24T08:57:41;2.23;;;2.03;;
11893;SDS011;6006;49.696;8.662;2023-04-24T09:00:10;3.13;;;1.60;;
11893;SDS011;6006;49.696;8.662;2023-04-24T09:02:39;2.97;;;1.90;;
11893;SDS011;6006;49.696;8.662;2023-04-24T09:05:11;2.00;;;1.90;;
11893;SDS011;6006;49.696;8.662;2023-04-24T09:07:40;3.10;;;2.30;;
11893;SDS011;6006;49.696;8.662;2023-04-24T09:10:11;2.60;;;2.40;;
11893;SDS011;6006;49.696;8.662;2023-04-24T09:12:38;2.07;;;1.97;;
11893;SDS011;6006;49.696;8.662;2023-04-24T09:15:07;2.57;;;2.37;;
11893;SDS011;6006;49.696;8.662;2023-04-24T09:17:35;2.53;;;2.33;;
11893;SDS011;6006;49.696;8.662;2023-04-24T09:20:03;2.30;;;2.10;;
11893;SDS011;6006;49.696;8.662;2023-04-24T09:22:32;2.57;;;2.37;;
11893;SDS011;6006;49.696;8.662;2023-04-24T09:25:01;2.60;;;2.10;;
11893;SDS011;6006;49.696;8.662;2023-04-24T09:27:30;2.20;;;2.10;;
11893;SDS011;6006;49.696;8.662;2023-04-24T09:29:58;4.50;;;2.07;;
11893;SDS011;6006;49.696;8.662;2023-04-24T09:32:26;2.30;;;2.10;;
11893;SDS011;6006;49.696;8.662;2023-04-24T09:35:08;2.00;;;1.90;;
11893;SDS011;6006;49.696;8.662;2023-04-24T09:37:38;2.50;;;2.27;;
11893;SDS011;6006;49.696;8.662;2023-04-24T09:40:10;3.43;;;2.60;;
11893;SDS011;6006;49.696;8.662;2023-04-24T09:42:39;4.90;;;2.37;;
11893;SDS011;6006;49.696;8.662;2023-04-24T09:45:09;2.83;;;2.30;;
11893;SDS011;6006;49.696;8.662;2023-04-24T09:47:37;2.07;;;1.97;;
11893;SDS011;6006;49.696;8.662;2023-04-24T09:50:11;2.83;;;2.10;;
11893;SDS011;6006;49.696;8.662;2023-04-24T09:52:42;2.60;;;2.27;;
11893;SDS011;6006;49.696;8.662;2023-04-24T09:55:13;2.33;;;2.13;;
11893;SDS011;6006;49.696;8.662;2023-04-24T09:57:49;2.40;;;2.20;;
11893;SDS011;6006;49.696;8.662;2023-04-24T10:00:18;2.30;;;2.10;;
11893;SDS011;6006;49.696;8.662;2023-04-24T10:02:49;1.90;;;1.80;;
11893;SDS011;6006;49.696;8.662;2023-04-24T10:05:18;2.00;;;1.90;;
11893;SDS011;6006;49.696;8.662;2023-04-24T10:07:47;2.13;;;1.80;;
11893;SDS011;6006;49.696;8.662;2023-04-24T10:10:14;1.90;;;1.80;;
11893;SDS011;6006;49.696;8.662;2023-04-24T10:12:41;1.97;;;1.67;;
11893;SDS011;6006;49.696;8.662;2023-04-24T10:15:09;2.63;;;1.80;;
11893;SDS011;6006;49.696;8.662;2023-04-24T10:17:39;1.73;;;1.63;;
11893;SDS011;6006;49.696;8.662;2023-04-24T10:20:07;1.87;;;1.50;;
11893;SDS011;6006;49.696;8.662;2023-04-24T10:22:34;1.40;;;1.30;;
11893;SDS011;6006;49.696;8.662;2023-04-24T10:25:04;1.83;;;1.60;;
11893;SDS011;6006;49.696;8.662;2023-04-24T10:27:32;1.63;;;1.50;;
11893;SDS011;6006;49.696;8.662;2023-04-24T10:30:01;1.50;;;1.40;;
11893;SDS011;6006;49.696;8.662;2023-04-24T10:32:28;1.97;;;1.63;;
11893;SDS011;6006;49.696;8.662;2023-04-24T10:34:56;1.77;;;1.60;;
11893;SDS011;6006;49.696;8.662;2023-04-24T10:37:23;1.50;;;1.40;;
11893;SDS011;6006;49.696;8.662;2023-04-24T10:39:51;1.73;;;1.37;;
11893;SDS011;6006;49.696;8.662;2023-04-24T10:42:21;1.70;;;1.60;;
11893;SDS011;6006;49.696;8.662;2023-04-24T10:44:48;1.70;;;1.60;;
11893;SDS011;6006;49.696;8.662;2023-04-24T10:47:15;1.63;;;1.53;;
11893;SDS011;6006;49.696;8.662;2023-04-24T10:49:42;2.43;;;1.43;;
11893;SDS011;6006;49.696;8.662;2023-04-24T10:52:09;3.40;;;1.53;;
11893;SDS011;6006;49.696;8.662;2023-04-24T10:54:41;2.07;;;1.30;;
11893;SDS011;6006;49.696;8.662;2023-04-24T10:57:26;1.40;;;1.23;;
11893;SDS011;6006;49.696;8.662;2023-04-24T11:00:10;1.73;;;1.60;;
11893;SDS011;6006;49.696;8.662;2023-04-24T11:02:40;1.67;;;1.57;;
11893;SDS011;6006;49.696;8.662;2023-04-24T11:05:15;1.60;;;1.50;;
11893;SDS011;6006;49.696;8.662;2023-04-24T11:10:39;2.37;;;1.80;;
11893;SDS011;6006;49.696;8.662;2023-04-24T11:13:11;2.07;;;1.73;;
11893;SDS011;6006;49.696;8.662;2023-04-24T11:15:41;1.93;;;1.80;;
11893;SDS011;6006;49.696;8.662;2023-04-24T11:18:12;1.77;;;1.67;;
11893;SDS011;6006;49.696;8.662;2023-04-24T11:20:41;5.07;;;1.90;;
11893;SDS011;6006;49.696;8.662;2023-04-24T11:23:09;2.00;;;1.90;;
11893;SDS011;6006;49.696;8.662;2023-04-24T11:25:38;1.77;;;1.67;;
11893;SDS011;6006;49.696;8.662;2023-04-24T11:28:05;2.40;;;1.63;;
11893;SDS011;6006;49.696;8.662;2023-04-24T11:30:34;1.87;;;1.70;;
11893;SDS011;6006;49.696;8.662;2023-04-24T11:33:04;2.13;;;1.93;;
11893;SDS011;6006;49.696;8.662;2023-04-24T11:35:34;1.90;;;1.80;;
11893;SDS011;6006;49.696;8.662;2023-04-24T11:38:03;2.07;;;1.63;;
11893;SDS011;6006;49.696;8.662;2023-04-24T11:40:31;1.80;;;1.70;;
11893;SDS011;6006;49.696;8.662;2023-04-24T11:42:59;1.97;;;1.87;;
11893;SDS011;6006;49.696;8.662;2023-04-24T11:45:27;2.20;;;1.70;;
11893;SDS011;6006;49.696;8.662;2023-04-24T11:47:56;2.20;;;2.00;;
11893;SDS011;6006;49.696;8.662;2023-04-24T11:50:24;2.13;;;1.93;;
11893;SDS011;6006;49.696;8.662;2023-04-24T11:52:53;2.17;;;1.97;;
11893;SDS011;6006;49.696;8.662;2023-04-24T11:55:24;2.40;;;2.20;;
11893;SDS011;6006;49.696;8.662;2023-04-24T11:57:53;4.00;;;2.43;;
11893;SDS011;6006;49.696;8.662;2023-04-24T12:00:23;2.70;;;2.50;;
11893;SDS011;6006;49.696;8.662;2023-04-24T12:02:51;1.97;;;1.87;;
11893;SDS011;6006;49.696;8.662;2023-04-24T12:05:30;2.13;;;1.97;;
11893;SDS011;6006;49.696;8.662;2023-04-24T12:07:57;3.43;;;2.20;;
11893;SDS011;6006;49.696;8.662;2023-04-24T12:10:24;3.50;;;2.37;;
11893;SDS011;6006;49.696;8.662;2023-04-24T12:12:52;3.10;;;2.27;;
11893;SDS011;6006;49.696;8.662;2023-04-24T12:15:20;2.30;;;2.20;;
11893;SDS011;6006;49.696;8.662;2023-04-24T12:17:47;2.80;;;2.57;;
11893;SDS011;6006;49.696;8.662;2023-04-24T12:20:16;2.53;;;2.33;;
11893;SDS011;6006;49.696;8.662;2023-04-24T12:22:45;2.90;;;2.57;;
11893;SDS011;6006;49.696;8.662;2023-04-24T12:25:13;2.77;;;2.57;;
11893;SDS011;6006;49.696;8.662;2023-04-24T12:27:40;2.77;;;2.57;;
11893;SDS011;6006;49.696;8.662;2023-04-24T12:30:10;2.57;;;2.37;;
11893;SDS011;6006;49.696;8.662;2023-04-24T12:32:42;3.97;;;2.63;;
11893;SDS011;6006;49.696;8.662;2023-04-24T12:35:10;3.10;;;2.73;;
11893;SDS011;6006;49.696;8.662;2023-04-24T12:37:37;2.60;;;2.40;;
11893;SDS011;6006;49.696;8.662;2023-04-24T12:40:07;3.50;;;2.60;;
11893;SDS011;6006;49.696;8.662;2023-04-24T12:42:35;3.27;;;2.77;;
11893;SDS011;6006;49.696;8.662;2023-04-24T12:45:07;4.93;;;2.90;;
11893;SDS011;6006;49.696;8.662;2023-04-24T12:47:34;3.13;;;2.83;;
11893;SDS011;6006;49.696;8.662;2023-04-24T12:50:01;5.77;;;3.87;;
11893;SDS011;6006;49.696;8.662;2023-04-24T12:52:29;2.50;;;2.13;;
11893;SDS011;6006;49.696;8.662;2023-04-24T12:54:57;2.60;;;2.40;;
11893;SDS011;6006;49.696;8.662;2023-04-24T12:57:26;2.60;;;2.40;;
11893;SDS011;6006;49.696;8.662;2023-04-24T12:59:54;3.67;;;2.43;;
11893;SDS011;6006;49.696;8.662;2023-04-24T13:02:22;3.40;;;2.57;;
11893;SDS011;6006;49.696;8.662;2023-04-24T13:04:49;4.33;;;2.20;;
11893;SDS011;6006;49.696;8.662;2023-04-24T13:07:17;2.07;;;1.97;;
11893;SDS011;6006;49.696;8.662;2023-04-24T13:09:44;3.40;;;2.33;;
11893;SDS011;6006;49.696;8.662;2023-04-24T13:12:12;3.47;;;2.43;;
11893;SDS011;6006;49.696;8.662;2023-04-24T13:14:40;2.80;;;2.17;;
11893;SDS011;6006;49.696;8.662;2023-04-24T13:17:07;2.53;;;2.33;;
11893;SDS011;6006;49.696;8.662;2023-04-24T13:19:37;2.60;;;2.40;;
11893;SDS011;6006;49.696;8.662;2023-04-24T13:22:05;2.50;;;2.30;;
11893;SDS011;6006;49.696;8.662;2023-04-24T13:24:32;2.40;;;2.20;;
11893;SDS011;6006;49.696;8.662;2023-04-24T13:26:59;2.63;;;2.10;;
11893;SDS011;6006;49.696;8.662;2023-04-24T13:29:27;3.33;;;1.90;;
11893;SDS011;6006;49.696;8.662;2023-04-24T13:31:56;2.43;;;1.93;;
11893;SDS011;6006;49.696;8.662;2023-04-24T13:34:23;2.67;;;2.00;;
11893;SDS011;6006;49.696;8.662;2023-04-24T13:36:51;2.10;;;2.00;;
11893;SDS011;6006;49.696;8.662;2023-04-24T13:39:19;2.60;;;2.40;;
11893;SDS011;6006;49.696;8.662;2023-04-24T13:41:46;2.00;;;1.90;;
11893;SDS011;6006;49.696;8.662;2023-04-24T13:44:13;2.63;;;2.43;;
11893;SDS011;6006;49.696;8.662;2023-04-24T13:46:41;2.30;;;2.10;;
11893;SDS011;6006;49.696;8.662;2023-04-24T13:49:10;3.97;;;3.43;;
11893;SDS011;6006;49.696;8.662;2023-04-24T13:51:37;5.70;;;2.50;;
11893;SDS011;6006;49.696;8.662;2023-04-24T13:54:05;3.40;;;2.40;;
11893;SDS011;6006;49.696;8.662;2023-04-24T13:56:32;2.77;;;2.57;;
11893;SDS011;6006;49.696;8.662;2023-04-24T13:58:59;3.27;;;2.50;;
11893;SDS011;6006;49.696;8.662;2023-04-24T14:01:26;4.30;;;2.13;;
11893;SDS011;6006;49.696;8.662;2023-04-24T14:03:53;3.47;;;2.40;;
11893;SDS011;6006;49.696;8.662;2023-04-24T14:06:23;3.67;;;2.17;;
11893;SDS011;6006;49.696;8.662;2023-04-24T14:08:50;3.37;;;2.37;;
11893;SDS011;6006;49.696;8.662;2023-04-24T14:11:18;2.30;;;2.10;;
11893;SDS011;6006;49.696;8.662;2023-04-24T14:13:45;2.73;;;2.47;;
11893;SDS011;6006;49.696;8.662;2023-04-24T14:16:12;2.57;;;2.03;;
11893;SDS011;6006;49.696;8.662;2023-04-24T14:18:39;2.40;;;2.20;;
11893;SDS011;6006;49.696;8.662;2023-04-24T14:21:06;3.53;;;2.63;;
11893;SDS011;6006;49.696;8.662;2023-04-24T14:23:34;4.07;;;2.10;;
11893;SDS011;6006;49.696;8.662;2023-04-24T14:26:02;2.40;;;2.20;;
11893;SDS011;6006;49.696;8.662;2023-04-24T14:28:29;1.80;;;1.70;;
11893;SDS011;6006;49.696;8.662;2023-04-24T14:30:55;3.60;;;2.40;;
11893;SDS011;6006;49.696;8.662;2023-04-24T14:33:22;2.10;;;1.90;;
11893;SDS011;6006;49.696;8.662;2023-04-24T14:35:49;2.30;;;1.83;;
11893;SDS011;6006;49.696;8.662;2023-04-24T14:38:16;3.07;;;1.80;;
11893;SDS011;6006;49.696;8.662;2023-04-24T14:40:45;1.93;;;1.73;;
11893;SDS011;6006;49.696;8.662;2023-04-24T14:43:12;2.10;;;2.00;;
11893;SDS011;6006;49.696;8.662;2023-04-24T14:45:39;2.57;;;2.00;;
11893;SDS011;6006;49.696;8.662;2023-04-24T14:48:06;1.90;;;1.70;;
11893;SDS011;6006;49.696;8.662;2023-04-24T14:50:34;2.77;;;1.90;;
11893;SDS011;6006;49.696;8.662;2023-04-24T14:53:01;2.30;;;2.10;;
11893;SDS011;6006;49.696;8.662;2023-04-24T14:55:27;2.70;;;2.07;;
11893;SDS011;6006;49.696;8.662;2023-04-24T14:57:56;2.13;;;1.97;;
11893;SDS011;6006;49.696;8.662;2023-04-24T15:00:23;2.63;;;2.37;;
11893;SDS011;6006;49.696;8.662;2023-04-24T15:02:50;2.43;;;2.23;;
11893;SDS011;6006;49.696;8.662;2023-04-24T15:05:17;2.10;;;2.00;;
11893;SDS011;6006;49.696;8.662;2023-04-24T15:07:44;3.53;;;2.50;;